Airfield :
LOGIN :

Register | Disclaimer

   EN    FR    IT 

 










Legend :    VFR   Marginal VFR   IFR   Intensive IFR   Very Intensive IFR
Visi :
Ceiling :
>= 8 km
>= 3000ft
5 to 8 km
1000 to 3000 ft
1500m to 5 km
500 to 1000 ft
800 to 1500m
200 to 500 ft
< 800m
< 200 ft
Symbols :   Thunderstorms  Fog  Heavy snow  Heavy precipitations  Wind > 20 kt
SIGMETs :     Misc.  Thunderstorms  Icing  Turbulence  Mountain Waves  Volcanic Ashes







- Airport Elevation : 83 ft
- IATA code : LHR
- Download approach charts


EGLL - London Heathrow

CURRENT METAR :
  • 161650Z AUTO 36005KT 320V060 9999 BKN014 BKN019 17/15 Q1022 TEMPO SCT014 BKN019

EXPIRED METARs :
  • 161620Z AUTO 04005KT 340V080 9999 BKN010 BKN014 BKN027 18/16 Q1022 TEMPO SCT010 BKN016
  • 161550Z 01004KT 350V060 9999 FEW007 BKN011 OVC017 17/16 Q1022 REDZ
  • 161520Z 03004KT 4500 DZ FEW006 SCT010 OVC017 17/16 Q1022 TEMPO BKN010
  • 161450Z 36005KT 330V040 9999 -DZ FEW017 BKN022 OVC032 18/16 Q1022 REDZ
  • 161420Z AUTO 01004KT 330V050 9999 SCT024 BKN030 OVC038 19/15 Q1022

TAF AMD TAF EGLL
Valid from the 16 at 14:00 until the 17 at 18:00 UTC


161432Z 1614/1718 01006KT 9999 FEW010 BKN030
TEMPO 1614/1620 7000 -DZ BKN010
PROB30
TEMPO 1615/1619 3000 DZ BKN006
BECMG 1623/1702 CAVOK
PROB40 1623/1707 6000
No reported NOTAMs for that airfield.



MET'MAP, your aeronautical weather chart ! - Copyright ORBIFLY December 2007 - Disclaimer

ORBIFLY MET'MAP TEAM :

Programming & Development : Alexandra Zaïnal
Concept & Development : Baudouin d'Aumeries
Co-Development & Prog : Marc-Olivier Méhu
Technical & hardware support : Manuel Goepfert

Contact : metmap@orbifly.com




SOURCES & CREDITS :

   NOAA